Time;durP1;ratioP1;P1;durP2;ratioP2;P2;SDS_P1;SDS_P2;PMS_P1;PMS_P2;Temp;Humidity;BMP_temperature;BMP_pressure;BME280_temperature;BME280_humidity;BME280_pressure;Samples;Min_cycle;Max_cycle;Signal;HPM_P1;HPM_P2
2021/08/26 00:00:02;;;;;;;0.00;0.00;;;;;;;;;;5058837;28;20215;-72
2021/08/26 00:07:57;;;;;;;0.00;0.00;;;;;;;;;;5065973;28;20531;-72
2021/08/26 00:10:24;;;;;;;0.00;0.00;;;;;;;;;;5051128;28;20247;-72
2021/08/26 00:12:52;;;;;;;0.10;0.10;;;;;;;;;;5057986;28;20217;-72
2021/08/26 00:15:18;;;;;;;1.13;0.73;;;;;;;;;;5057147;28;20207;-72
2021/08/26 00:17:45;;;;;;;0.00;0.00;;;;;;;;;;5067706;28;20223;-73
2021/08/26 00:20:12;;;;;;;0.10;0.10;;;;;;;;;;5052052;28;20388;-71
2021/08/26 00:22:38;;;;;;;0.10;0.10;;;;;;;;;;5056957;28;20424;-72
2021/08/26 00:25:05;;;;;;;0.00;0.00;;;;;;;;;;5058379;28;20250;-72
2021/08/26 00:27:31;;;;;;;0.00;0.00;;;;;;;;;;5070258;28;20551;-72
2021/08/26 00:29:59;;;;;;;0.07;0.07;;;;;;;;;;5059689;28;20502;-73
2021/08/26 00:32:25;;;;;;;0.08;0.08;;;;;;;;;;5055441;28;20333;-73
2021/08/26 00:34:51;;;;;;;0.10;0.10;;;;;;;;;;5066328;28;20203;-73
2021/08/26 00:37:17;;;;;;;0.00;0.00;;;;;;;;;;5068049;28;20249;-71
2021/08/26 00:39:44;;;;;;;0.10;0.10;;;;;;;;;;5061849;28;20407;-71
2021/08/26 00:42:10;;;;;;;0.10;0.10;;;;;;;;;;5065332;28;20204;-70
2021/08/26 00:44:36;;;;;;;0.10;0.10;;;;;;;;;;5056702;28;20240;-71
2021/08/26 00:47:04;;;;;;;0.10;0.10;;;;;;;;;;5060272;28;20252;-71
2021/08/26 00:49:30;;;;;;;0.10;0.10;;;;;;;;;;5054330;28;20243;-72
2021/08/26 00:51:57;;;;;;;0.10;0.10;;;;;;;;;;5055444;28;20417;-72
2021/08/26 00:54:23;;;;;;;0.00;0.00;;;;;;;;;;5064032;28;20508;-71
2021/08/26 00:56:50;;;;;;;0.10;0.10;;;;;;;;;;5070660;28;20222;-72
2021/08/26 00:59:16;;;;;;;0.03;0.03;;;;;;;;;;5056769;28;20209;-72
2021/08/26 01:01:47;;;;;;;0.10;0.10;;;;;;;;;;5076348;28;20478;-71
2021/08/26 01:04:18;;;;;;;0.10;0.10;;;;;;;;;;5067320;28;20204;-71
2021/08/26 01:06:49;;;;;;;0.10;0.10;;;;;;;;;;5051310;28;20199;-73
2021/08/26 01:09:20;;;;;;;0.00;0.00;;;;;;;;;;5053170;28;20415;-71
2021/08/26 01:11:48;;;;;;;0.00;0.00;;;;;;;;;;5058195;28;20441;-71
2021/08/26 01:14:14;;;;;;;0.00;0.00;;;;;;;;;;5051164;28;20273;-70
2021/08/26 01:16:40;;;;;;;0.10;0.10;;;;;;;;;;5052824;28;20204;-71
2021/08/26 01:19:07;;;;;;;0.10;0.10;;;;;;;;;;5058490;28;20228;-71
2021/08/26 01:21:35;;;;;;;0.00;0.00;;;;;;;;;;5075650;28;20223;-73
2021/08/26 01:24:03;;;;;;;0.10;0.10;;;;;;;;;;5067482;28;20211;-72
2021/08/26 01:26:33;;;;;;;0.00;0.00;;;;;;;;;;5070625;28;20205;-72
2021/08/26 01:29:00;;;;;;;0.00;0.00;;;;;;;;;;5052587;28;20208;-71
2021/08/26 01:31:26;;;;;;;0.10;0.10;;;;;;;;;;5064790;28;20204;-70
2021/08/26 01:33:54;;;;;;;0.10;0.10;;;;;;;;;;5066765;28;20374;-72
2021/08/26 01:36:20;;;;;;;0.10;0.10;;;;;;;;;;5066546;28;20204;-71
2021/08/26 01:38:47;;;;;;;0.07;0.07;;;;;;;;;;5082356;28;20494;-71
2021/08/26 01:41:13;;;;;;;0.10;0.10;;;;;;;;;;5076055;28;20203;-75
2021/08/26 01:43:41;;;;;;;0.10;0.10;;;;;;;;;;5062455;28;20203;-71
2021/08/26 01:46:07;;;;;;;0.10;0.10;;;;;;;;;;5068812;28;20438;-71
2021/08/26 01:48:35;;;;;;;0.00;0.00;;;;;;;;;;5068205;28;20211;-72
2021/08/26 01:51:01;;;;;;;0.10;0.10;;;;;;;;;;5064133;28;20433;-71
2021/08/26 01:53:27;;;;;;;0.10;0.10;;;;;;;;;;5049795;28;20258;-71
2021/08/26 01:55:54;;;;;;;0.10;0.10;;;;;;;;;;5065422;28;20201;-72
2021/08/26 01:58:20;;;;;;;0.00;0.00;;;;;;;;;;5058040;28;20200;-72
2021/08/26 02:00:47;;;;;;;0.00;0.00;;;;;;;;;;5054332;28;20246;-72
2021/08/26 02:03:14;;;;;;;0.10;0.10;;;;;;;;;;5068989;28;20245;-69
2021/08/26 02:05:42;;;;;;;0.03;0.03;;;;;;;;;;5063436;28;20245;-72
2021/08/26 02:08:08;;;;;;;0.00;0.00;;;;;;;;;;5071130;28;20256;-72
2021/08/26 02:10:34;;;;;;;0.03;0.03;;;;;;;;;;5080036;28;20228;-72
2021/08/26 02:13:01;;;;;;;0.10;0.10;;;;;;;;;;5077833;28;20220;-73
2021/08/26 02:15:27;;;;;;;0.10;0.10;;;;;;;;;;5074882;28;20203;-72
2021/08/26 02:17:55;;;;;;;0.00;0.00;;;;;;;;;;5082274;28;20408;-71
2021/08/26 02:20:22;;;;;;;0.08;0.08;;;;;;;;;;5085531;28;20209;-72
2021/08/26 02:22:48;;;;;;;0.07;0.07;;;;;;;;;;5070370;28;20206;-72
2021/08/26 02:25:15;;;;;;;0.00;0.00;;;;;;;;;;5072408;28;20206;-72
2021/08/26 02:27:41;;;;;;;0.07;0.07;;;;;;;;;;5071465;28;20494;-72
2021/08/26 02:30:08;;;;;;;0.00;0.00;;;;;;;;;;5079683;28;20204;-71
2021/08/26 02:32:35;;;;;;;0.10;0.10;;;;;;;;;;5076700;28;20205;-71
2021/08/26 02:35:03;;;;;;;0.10;0.10;;;;;;;;;;5071129;28;20201;-72
2021/08/26 02:37:30;;;;;;;0.10;0.10;;;;;;;;;;5074913;28;20264;-71
2021/08/26 02:39:56;;;;;;;0.00;0.00;;;;;;;;;;5077245;28;20288;-72
2021/08/26 02:42:23;;;;;;;0.10;0.10;;;;;;;;;;5059975;28;20278;-72
2021/08/26 02:44:49;;;;;;;0.07;0.07;;;;;;;;;;5085102;28;20203;-72
2021/08/26 02:47:15;;;;;;;0.10;0.10;;;;;;;;;;5084716;28;20256;-72
2021/08/26 02:49:41;;;;;;;0.10;0.10;;;;;;;;;;5084547;28;20248;-71
2021/08/26 02:52:09;;;;;;;0.07;0.07;;;;;;;;;;5070071;28;20213;-71
2021/08/26 02:54:36;;;;;;;0.10;0.10;;;;;;;;;;5084608;28;20537;-71
2021/08/26 02:57:02;;;;;;;0.00;0.00;;;;;;;;;;5070842;28;20487;-72
2021/08/26 02:59:28;;;;;;;0.00;0.00;;;;;;;;;;5076328;28;20484;-71
2021/08/26 03:01:54;;;;;;;13.77;1.03;;;;;;;;;;5064338;28;20206;-70
2021/08/26 03:04:21;;;;;;;0.10;0.10;;;;;;;;;;5064189;28;20201;-71
2021/08/26 03:06:47;;;;;;;1.60;1.50;;;;;;;;;;5076859;28;20206;-70
2021/08/26 03:09:14;;;;;;;0.10;0.10;;;;;;;;;;5065882;28;20476;-72
2021/08/26 03:11:41;;;;;;;0.10;0.10;;;;;;;;;;5064389;28;20204;-71
2021/08/26 03:14:07;;;;;;;0.00;0.00;;;;;;;;;;5065894;28;20254;-72
2021/08/26 03:16:33;;;;;;;0.00;0.00;;;;;;;;;;5082077;28;20205;-72
2021/08/26 03:18:59;;;;;;;0.10;0.10;;;;;;;;;;5078241;28;20225;-72
2021/08/26 03:21:26;;;;;;;0.10;0.10;;;;;;;;;;5056953;28;20207;-72
2021/08/26 03:23:52;;;;;;;0.10;0.10;;;;;;;;;;5084241;28;20202;-71
2021/08/26 03:26:20;;;;;;;0.00;0.00;;;;;;;;;;5065869;28;20381;-71
2021/08/26 03:28:46;;;;;;;0.00;0.00;;;;;;;;;;5074289;28;20214;-72
2021/08/26 03:31:13;;;;;;;0.03;0.03;;;;;;;;;;5065208;28;20217;-73
2021/08/26 03:33:39;;;;;;;0.07;0.07;;;;;;;;;;5052563;28;20291;-73
2021/08/26 03:36:05;;;;;;;0.10;0.10;;;;;;;;;;5077509;28;20248;-73
2021/08/26 03:38:32;;;;;;;1.10;0.87;;;;;;;;;;5070114;28;20251;-72
2021/08/26 03:40:58;;;;;;;0.10;0.10;;;;;;;;;;5084190;28;20203;-72
2021/08/26 03:43:26;;;;;;;0.03;0.03;;;;;;;;;;5083296;28;20198;-73
2021/08/26 03:45:52;;;;;;;0.10;0.10;;;;;;;;;;5072372;28;20207;-73
2021/08/26 03:48:19;;;;;;;0.30;0.30;;;;;;;;;;5081093;28;20251;-72
2021/08/26 03:50:45;;;;;;;0.10;0.10;;;;;;;;;;5074112;28;20281;-72
2021/08/26 03:53:11;;;;;;;0.10;0.10;;;;;;;;;;5077520;28;20217;-73
2021/08/26 03:55:37;;;;;;;0.10;0.10;;;;;;;;;;5071025;28;20393;-72
2021/08/26 03:58:04;;;;;;;0.10;0.10;;;;;;;;;;5069632;28;20211;-72
2021/08/26 04:00:32;;;;;;;2.40;0.37;;;;;;;;;;5082645;28;20484;-72
2021/08/26 04:02:58;;;;;;;0.10;0.10;;;;;;;;;;5083365;28;20255;-72
2021/08/26 04:05:24;;;;;;;0.10;0.10;;;;;;;;;;5083062;28;20296;-73
2021/08/26 04:07:50;;;;;;;0.10;0.10;;;;;;;;;;5069708;28;20310;-73
2021/08/26 04:10:16;;;;;;;0.10;0.10;;;;;;;;;;5077724;28;20243;-72
2021/08/26 04:12:43;;;;;;;0.10;0.10;;;;;;;;;;5071821;28;20209;-72
2021/08/26 04:15:09;;;;;;;0.00;0.00;;;;;;;;;;5079357;28;20226;-71
2021/08/26 04:17:36;;;;;;;0.00;0.00;;;;;;;;;;5083334;28;20264;-73
2021/08/26 04:20:03;;;;;;;0.10;0.10;;;;;;;;;;5082969;28;20205;-71
2021/08/26 04:22:30;;;;;;;0.00;0.00;;;;;;;;;;5083875;28;20206;-71
2021/08/26 04:24:56;;;;;;;0.10;0.10;;;;;;;;;;5076840;28;20196;-72
2021/08/26 04:27:22;;;;;;;0.10;0.10;;;;;;;;;;5076384;28;20394;-73
2021/08/26 04:29:48;;;;;;;0.10;0.10;;;;;;;;;;5082870;28;20409;-74
2021/08/26 04:32:14;;;;;;;0.07;0.07;;;;;;;;;;5072265;28;20250;-71
2021/08/26 04:34:42;;;;;;;0.00;0.00;;;;;;;;;;5076824;28;20260;-74
2021/08/26 04:37:08;;;;;;;0.00;0.00;;;;;;;;;;5072933;28;20209;-72
2021/08/26 04:39:34;;;;;;;0.10;0.10;;;;;;;;;;5083246;28;20206;-72
2021/08/26 04:42:01;;;;;;;0.00;0.00;;;;;;;;;;5083632;28;20202;-72
2021/08/26 04:44:28;;;;;;;0.00;0.00;;;;;;;;;;5082857;28;20199;-72
2021/08/26 04:46:54;;;;;;;0.10;0.10;;;;;;;;;;5068677;28;20205;-71
2021/08/26 04:49:20;;;;;;;0.10;0.10;;;;;;;;;;5084270;28;20205;-71
2021/08/26 04:51:48;;;;;;;0.00;0.00;;;;;;;;;;5086966;28;20255;-72
2021/08/26 04:54:14;;;;;;;0.10;0.10;;;;;;;;;;5086725;28;20232;-71
2021/08/26 04:56:40;;;;;;;0.00;0.00;;;;;;;;;;5086447;28;20244;-71
2021/08/26 04:59:07;;;;;;;0.00;0.00;;;;;;;;;;5078292;28;20200;-72
2021/08/26 05:01:33;;;;;;;0.00;0.00;;;;;;;;;;5081119;28;20248;-71
2021/08/26 05:04:00;;;;;;;0.00;0.00;;;;;;;;;;5086820;28;20202;-72
2021/08/26 05:06:26;;;;;;;0.10;0.10;;;;;;;;;;5086582;28;20398;-71
2021/08/26 05:08:54;;;;;;;0.00;0.00;;;;;;;;;;5072480;28;20265;-71
2021/08/26 05:11:20;;;;;;;0.10;0.10;;;;;;;;;;5075591;28;20215;-71
2021/08/26 05:13:47;;;;;;;0.03;0.03;;;;;;;;;;5069668;28;20222;-71
2021/08/26 05:16:13;;;;;;;0.10;0.10;;;;;;;;;;5086717;28;20211;-72
2021/08/26 05:18:39;;;;;;;0.07;0.07;;;;;;;;;;5086848;28;20428;-71
2021/08/26 05:21:06;;;;;;;0.10;0.10;;;;;;;;;;5058762;28;20206;-71
2021/08/26 05:23:32;;;;;;;0.10;0.10;;;;;;;;;;5086733;28;20248;-72
2021/08/26 05:26:02;;;;;;;0.10;0.10;;;;;;;;;;5057084;28;20495;-71
2021/08/26 05:28:28;;;;;;;1.07;1.07;;;;;;;;;;5066332;28;20258;-71
2021/08/26 05:30:54;;;;;;;0.10;0.10;;;;;;;;;;5052604;28;20210;-70
2021/08/26 05:33:21;;;;;;;0.10;0.10;;;;;;;;;;5079995;28;20388;-71
2021/08/26 05:35:47;;;;;;;0.00;0.00;;;;;;;;;;5066436;28;20202;-72
2021/08/26 05:38:13;;;;;;;0.00;0.00;;;;;;;;;;5084371;28;20371;-72
2021/08/26 05:40:40;;;;;;;0.73;0.30;;;;;;;;;;5065327;28;20521;-72
2021/08/26 05:43:07;;;;;;;0.10;0.10;;;;;;;;;;5065249;28;20246;-73
2021/08/26 05:45:33;;;;;;;0.00;0.00;;;;;;;;;;5085920;28;20245;-73
2021/08/26 05:48:00;;;;;;;0.00;0.00;;;;;;;;;;5071423;28;20232;-72
2021/08/26 05:50:27;;;;;;;0.10;0.10;;;;;;;;;;5065904;28;20206;-71
2021/08/26 05:52:53;;;;;;;0.10;0.10;;;;;;;;;;5078826;28;20386;-71
2021/08/26 05:55:19;;;;;;;0.00;0.00;;;;;;;;;;5066653;28;20227;-72
2021/08/26 05:57:45;;;;;;;0.00;0.00;;;;;;;;;;5076900;28;20203;-72
2021/08/26 06:00:13;;;;;;;0.00;0.00;;;;;;;;;;5067414;28;20214;-71
2021/08/26 06:02:40;;;;;;;0.00;0.00;;;;;;;;;;5054230;28;20258;-72
2021/08/26 06:05:06;;;;;;;0.00;0.00;;;;;;;;;;5061685;28;20227;-73
2021/08/26 06:07:33;;;;;;;0.10;0.10;;;;;;;;;;5063584;28;20481;-72
2021/08/26 06:09:59;;;;;;;0.10;0.10;;;;;;;;;;5059671;28;20203;-70
2021/08/26 06:12:25;;;;;;;0.00;0.00;;;;;;;;;;5062992;28;20400;-73
2021/08/26 06:14:51;;;;;;;0.10;0.10;;;;;;;;;;5073292;28;20217;-72
2021/08/26 06:17:19;;;;;;;0.00;0.00;;;;;;;;;;5071543;28;20206;-72
2021/08/26 06:19:45;;;;;;;0.00;0.00;;;;;;;;;;5045517;28;20214;-73
2021/08/26 06:22:11;;;;;;;0.20;0.20;;;;;;;;;;5058140;28;20377;-72
2021/08/26 06:24:38;;;;;;;0.10;0.10;;;;;;;;;;5053917;28;20483;-72
2021/08/26 06:27:04;;;;;;;0.10;0.10;;;;;;;;;;5067190;28;20205;-72
2021/08/26 06:29:30;;;;;;;0.07;0.07;;;;;;;;;;5052249;28;20203;-72
2021/08/26 06:31:56;;;;;;;0.00;0.00;;;;;;;;;;5058129;28;20389;-73
2021/08/26 06:34:24;;;;;;;0.23;0.23;;;;;;;;;;5047410;28;20227;-72
2021/08/26 06:36:50;;;;;;;0.10;0.10;;;;;;;;;;5061103;28;20215;-73
2021/08/26 06:39:16;;;;;;;0.00;0.00;;;;;;;;;;5061858;28;20427;-73
2021/08/26 06:41:43;;;;;;;0.00;0.00;;;;;;;;;;5066356;28;20241;-73
2021/08/26 06:44:10;;;;;;;0.07;0.07;;;;;;;;;;5058052;28;20272;-71
2021/08/26 06:46:36;;;;;;;3.60;1.50;;;;;;;;;;5055892;28;20361;-72
2021/08/26 06:49:03;;;;;;;0.00;0.00;;;;;;;;;;5058679;28;20206;-72
2021/08/26 06:51:30;;;;;;;0.60;0.60;;;;;;;;;;5057093;28;20216;-74
2021/08/26 06:53:56;;;;;;;0.00;0.00;;;;;;;;;;5057027;28;20281;-73
2021/08/26 06:56:23;;;;;;;0.03;0.03;;;;;;;;;;5062996;28;20202;-73
2021/08/26 06:58:49;;;;;;;0.10;0.10;;;;;;;;;;5055694;28;20399;-74
2021/08/26 07:01:15;;;;;;;0.10;0.10;;;;;;;;;;5062919;28;20215;-72
2021/08/26 07:03:41;;;;;;;0.10;0.10;;;;;;;;;;5058466;28;20198;-72
2021/08/26 07:06:08;;;;;;;0.10;0.10;;;;;;;;;;5061159;28;20211;-72
2021/08/26 07:08:35;;;;;;;0.00;0.00;;;;;;;;;;5058847;28;20204;-73
2021/08/26 07:11:01;;;;;;;0.03;0.03;;;;;;;;;;5059850;28;20210;-72
2021/08/26 07:13:28;;;;;;;0.30;0.30;;;;;;;;;;5056336;28;20204;-74
2021/08/26 07:15:54;;;;;;;0.10;0.10;;;;;;;;;;5058801;28;20277;-71
2021/08/26 07:18:20;;;;;;;0.05;0.05;;;;;;;;;;5056404;28;20227;-73
2021/08/26 07:20:47;;;;;;;0.00;0.00;;;;;;;;;;5055690;28;20284;-70
2021/08/26 07:23:13;;;;;;;0.00;0.00;;;;;;;;;;5057817;28;20234;-71
2021/08/26 07:25:40;;;;;;;0.10;0.10;;;;;;;;;;5055778;28;20215;-70
2021/08/26 07:28:07;;;;;;;0.10;0.10;;;;;;;;;;5058762;28;20212;-71
2021/08/26 07:30:33;;;;;;;0.07;0.07;;;;;;;;;;5051484;28;20266;-70
2021/08/26 07:32:59;;;;;;;0.30;0.30;;;;;;;;;;5054517;28;20441;-70
2021/08/26 07:35:28;;;;;;;0.38;0.38;;;;;;;;;;5056690;28;20223;-72
2021/08/26 07:37:54;;;;;;;0.10;0.10;;;;;;;;;;5049293;28;20211;-73
2021/08/26 07:40:21;;;;;;;0.10;0.10;;;;;;;;;;5050423;28;20224;-72
2021/08/26 07:42:48;;;;;;;0.00;0.00;;;;;;;;;;5049691;28;20432;-71
2021/08/26 07:45:15;;;;;;;0.10;0.10;;;;;;;;;;5057366;28;20210;-71
2021/08/26 07:47:41;;;;;;;0.00;0.00;;;;;;;;;;5057881;28;20222;-71
2021/08/26 07:50:08;;;;;;;0.10;0.10;;;;;;;;;;5060958;28;20548;-71
2021/08/26 07:52:34;;;;;;;0.00;0.00;;;;;;;;;;5056272;28;20232;-71
2021/08/26 07:55:02;;;;;;;0.98;0.98;;;;;;;;;;5052869;28;20283;-72
2021/08/26 07:57:28;;;;;;;0.00;0.00;;;;;;;;;;5056288;28;20205;-72
2021/08/26 07:59:56;;;;;;;0.10;0.10;;;;;;;;;;5057922;28;20412;-72
2021/08/26 08:02:22;;;;;;;0.00;0.00;;;;;;;;;;5050965;28;20480;-73
2021/08/26 08:04:48;;;;;;;0.10;0.10;;;;;;;;;;5058347;28;20306;-72
2021/08/26 08:07:15;;;;;;;0.10;0.10;;;;;;;;;;5056772;28;20208;-71
2021/08/26 08:09:41;;;;;;;0.00;0.00;;;;;;;;;;5049709;28;20258;-72
2021/08/26 08:12:08;;;;;;;0.10;0.10;;;;;;;;;;5058756;28;20491;-72
2021/08/26 08:14:34;;;;;;;0.00;0.00;;;;;;;;;;5051808;28;20460;-72
2021/08/26 08:17:01;;;;;;;0.10;0.10;;;;;;;;;;5049441;28;20206;-72
2021/08/26 08:19:28;;;;;;;0.00;0.00;;;;;;;;;;5056801;28;20572;-74
2021/08/26 08:21:54;;;;;;;0.00;0.00;;;;;;;;;;5059227;28;20553;-70
2021/08/26 08:24:21;;;;;;;0.10;0.10;;;;;;;;;;5058337;28;20209;-71
2021/08/26 08:26:47;;;;;;;0.10;0.10;;;;;;;;;;5063141;28;20204;-73
2021/08/26 08:29:14;;;;;;;0.10;0.10;;;;;;;;;;5059738;28;20301;-70
2021/08/26 08:31:40;;;;;;;0.10;0.10;;;;;;;;;;5058840;28;20205;-72
2021/08/26 08:34:08;;;;;;;0.10;0.10;;;;;;;;;;5059151;28;20367;-72
2021/08/26 08:36:34;;;;;;;0.03;0.03;;;;;;;;;;5051707;28;20201;-71
2021/08/26 08:39:00;;;;;;;0.10;0.10;;;;;;;;;;5052828;28;20417;-72
2021/08/26 08:41:27;;;;;;;0.10;0.10;;;;;;;;;;5048862;28;20272;-71
2021/08/26 08:43:56;;;;;;;0.08;0.08;;;;;;;;;;5059899;28;20201;-70
2021/08/26 08:46:23;;;;;;;0.05;0.05;;;;;;;;;;5051830;28;20207;-71
2021/08/26 08:48:49;;;;;;;0.25;0.25;;;;;;;;;;5057343;28;20585;-72
2021/08/26 08:51:17;;;;;;;0.10;0.10;;;;;;;;;;5053736;28;20213;-72
2021/08/26 08:53:44;;;;;;;0.00;0.00;;;;;;;;;;5053798;28;20500;-74
2021/08/26 08:56:10;;;;;;;0.10;0.10;;;;;;;;;;5054883;28;20228;-70
2021/08/26 08:58:37;;;;;;;0.13;0.13;;;;;;;;;;5055318;28;20206;-70
2021/08/26 09:01:03;;;;;;;0.10;0.10;;;;;;;;;;5054465;28;20239;-71
2021/08/26 09:03:30;;;;;;;0.00;0.00;;;;;;;;;;5057509;28;20210;-71
2021/08/26 09:05:57;;;;;;;0.08;0.08;;;;;;;;;;5051613;28;20202;-71
2021/08/26 09:08:25;;;;;;;0.10;0.10;;;;;;;;;;5060153;28;20205;-71
2021/08/26 09:10:53;;;;;;;0.00;0.00;;;;;;;;;;5051153;28;20497;-72
2021/08/26 09:13:29;;;;;;;0.10;0.10;;;;;;;;;;5053479;28;20208;-70
2021/08/26 09:15:56;;;;;;;0.00;0.00;;;;;;;;;;5052252;28;20459;-73
2021/08/26 09:18:22;;;;;;;0.00;0.00;;;;;;;;;;5050864;28;20233;-73
2021/08/26 09:20:49;;;;;;;0.08;0.08;;;;;;;;;;5052356;28;20505;-73
2021/08/26 09:23:15;;;;;;;0.10;0.10;;;;;;;;;;5048926;28;20211;-72
2021/08/26 09:25:44;;;;;;;0.00;0.00;;;;;;;;;;5053794;28;20456;-73
2021/08/26 09:28:24;;;;;;;0.10;0.10;;;;;;;;;;5054807;28;20208;-72
2021/08/26 09:30:51;;;;;;;0.00;0.00;;;;;;;;;;5049890;28;20197;-71
2021/08/26 09:33:17;;;;;;;0.10;0.10;;;;;;;;;;5054464;28;20277;-72
2021/08/26 09:35:43;;;;;;;0.10;0.10;;;;;;;;;;5052033;28;20223;-73
2021/08/26 09:38:09;;;;;;;0.10;0.10;;;;;;;;;;5060465;28;20209;-72
2021/08/26 09:40:42;;;;;;;0.10;0.10;;;;;;;;;;5056817;28;20272;-73
2021/08/26 09:43:09;;;;;;;0.00;0.00;;;;;;;;;;5054044;28;20201;-72
2021/08/26 09:45:37;;;;;;;0.52;0.52;;;;;;;;;;5056927;28;20258;-71
2021/08/26 09:48:04;;;;;;;0.10;0.10;;;;;;;;;;5057007;28;20340;-71
2021/08/26 09:50:38;;;;;;;0.10;0.10;;;;;;;;;;5058780;28;20568;-69
2021/08/26 09:53:05;;;;;;;0.05;0.05;;;;;;;;;;5057722;28;20254;-69
2021/08/26 09:55:46;;;;;;;0.00;0.00;;;;;;;;;;5056870;28;20296;-71
2021/08/26 09:58:14;;;;;;;0.00;0.00;;;;;;;;;;5060419;28;20488;-71
2021/08/26 10:00:40;;;;;;;0.10;0.10;;;;;;;;;;5065787;28;20205;-70
2021/08/26 10:03:10;;;;;;;0.00;0.00;;;;;;;;;;5061766;28;20283;-70
2021/08/26 10:05:36;;;;;;;0.08;0.08;;;;;;;;;;5055261;28;20197;-71
2021/08/26 10:08:02;;;;;;;0.00;0.00;;;;;;;;;;5057256;28;20213;-72
2021/08/26 10:10:29;;;;;;;0.10;0.10;;;;;;;;;;5061101;28;20435;-71
2021/08/26 10:12:55;;;;;;;0.05;0.05;;;;;;;;;;5056395;28;20385;-72
2021/08/26 10:15:22;;;;;;;0.10;0.10;;;;;;;;;;5063460;28;20233;-73
2021/08/26 10:17:49;;;;;;;0.00;0.00;;;;;;;;;;5053066;28;20582;-71
2021/08/26 10:20:15;;;;;;;0.00;0.00;;;;;;;;;;5059779;28;20488;-71
2021/08/26 10:22:41;;;;;;;0.10;0.10;;;;;;;;;;5061463;28;20202;-73
2021/08/26 10:25:08;;;;;;;0.00;0.00;;;;;;;;;;5056255;28;20382;-71
2021/08/26 10:27:35;;;;;;;0.10;0.10;;;;;;;;;;5065380;28;20213;-71
2021/08/26 10:30:01;;;;;;;0.20;0.20;;;;;;;;;;5065058;28;20201;-71
2021/08/26 10:32:29;;;;;;;0.10;0.10;;;;;;;;;;5056877;28;20481;-72
2021/08/26 10:35:09;;;;;;;0.10;0.10;;;;;;;;;;5060831;28;20499;-72
2021/08/26 10:37:48;;;;;;;0.10;0.10;;;;;;;;;;5064744;28;20240;-71
2021/08/26 10:40:29;;;;;;;0.10;0.10;;;;;;;;;;5057623;28;20519;-73
2021/08/26 10:42:56;;;;;;;0.10;0.10;;;;;;;;;;5044138;28;20396;-71
2021/08/26 10:45:24;;;;;;;0.03;0.03;;;;;;;;;;5058918;28;20251;-73
2021/08/26 10:48:25;;;;;;;0.00;0.00;;;;;;;;;;5050445;28;20230;-71
2021/08/26 10:51:16;;;;;;;0.00;0.00;;;;;;;;;;5048987;28;20223;-70
2021/08/26 10:53:43;;;;;;;0.10;0.10;;;;;;;;;;5060281;28;20226;-70
2021/08/26 10:56:17;;;;;;;0.00;0.00;;;;;;;;;;5060266;28;20231;-72
2021/08/26 10:58:43;;;;;;;0.00;0.00;;;;;;;;;;5064823;28;20201;-70
2021/08/26 11:01:11;;;;;;;0.00;0.00;;;;;;;;;;5063613;28;20354;-68
2021/08/26 11:03:55;;;;;;;0.00;0.00;;;;;;;;;;5049289;28;20533;-71
2021/08/26 11:06:38;;;;;;;0.00;0.00;;;;;;;;;;5063118;28;20199;-72
2021/08/26 11:09:19;;;;;;;0.00;0.00;;;;;;;;;;5059452;28;20214;-72
2021/08/26 11:11:47;;;;;;;0.10;0.10;;;;;;;;;;5058963;28;20216;-71
2021/08/26 11:14:25;;;;;;;0.00;0.00;;;;;;;;;;5063645;28;20222;-70
2021/08/26 11:16:51;;;;;;;0.00;0.00;;;;;;;;;;5074804;28;20224;-71
2021/08/26 11:19:28;;;;;;;0.10;0.10;;;;;;;;;;5068753;28;20223;-70
2021/08/26 11:22:01;;;;;;;0.00;0.00;;;;;;;;;;5074372;28;20234;-71
2021/08/26 11:24:51;;;;;;;0.00;0.00;;;;;;;;;;5081170;28;20472;-71
2021/08/26 11:27:17;;;;;;;0.00;0.00;;;;;;;;;;5072240;28;20249;-71
2021/08/26 11:29:44;;;;;;;0.03;0.03;;;;;;;;;;5083010;28;20196;-72
2021/08/26 11:32:11;;;;;;;0.00;0.00;;;;;;;;;;5083790;28;20210;-71
2021/08/26 11:34:39;;;;;;;0.00;0.00;;;;;;;;;;5082277;28;20371;-71
2021/08/26 11:37:07;;;;;;;0.00;0.00;;;;;;;;;;5074887;28;20252;-73
2021/08/26 11:39:35;;;;;;;0.00;0.00;;;;;;;;;;5076940;28;20214;-73
2021/08/26 11:42:02;;;;;;;0.08;0.08;;;;;;;;;;5076022;28;20198;-72
2021/08/26 11:44:30;;;;;;;0.10;0.10;;;;;;;;;;5075033;28;20253;-72
2021/08/26 11:46:57;;;;;;;0.00;0.00;;;;;;;;;;5055985;28;20438;-72
2021/08/26 11:49:32;;;;;;;0.10;0.10;;;;;;;;;;5071735;28;20546;-72
2021/08/26 11:52:03;;;;;;;0.00;0.00;;;;;;;;;;5063469;28;20224;-71
2021/08/26 11:54:35;;;;;;;0.00;0.00;;;;;;;;;;5073248;28;20216;-73
2021/08/26 11:57:01;;;;;;;0.00;0.00;;;;;;;;;;5077704;28;20576;-72
2021/08/26 11:59:31;;;;;;;0.00;0.00;;;;;;;;;;5073682;28;20210;-72
2021/08/26 12:02:16;;;;;;;0.00;0.00;;;;;;;;;;5083590;28;20509;-72
2021/08/26 12:04:42;;;;;;;0.00;0.00;;;;;;;;;;5078843;28;20213;-71
2021/08/26 12:07:09;;;;;;;0.05;0.05;;;;;;;;;;5072989;28;20270;-72
2021/08/26 12:09:37;;;;;;;0.00;0.00;;;;;;;;;;5053962;28;20215;-71
2021/08/26 12:12:08;;;;;;;0.10;0.10;;;;;;;;;;5077731;28;20291;-73
2021/08/26 12:14:35;;;;;;;0.00;0.00;;;;;;;;;;5068955;28;20397;-71
2021/08/26 12:17:09;;;;;;;0.00;0.00;;;;;;;;;;5075289;28;20228;-71
2021/08/26 12:19:35;;;;;;;0.00;0.00;;;;;;;;;;5065229;28;20230;-71
2021/08/26 12:22:02;;;;;;;0.10;0.10;;;;;;;;;;5074232;28;20552;-71
2021/08/26 12:24:28;;;;;;;0.03;0.03;;;;;;;;;;5080076;28;20203;-71
2021/08/26 12:26:56;;;;;;;0.03;0.03;;;;;;;;;;5063449;28;20202;-71
2021/08/26 12:29:23;;;;;;;0.00;0.00;;;;;;;;;;5062136;28;20210;-73
2021/08/26 12:31:50;;;;;;;0.10;0.10;;;;;;;;;;5058355;28;20219;-72
2021/08/26 12:34:16;;;;;;;0.00;0.00;;;;;;;;;;5076359;28;20427;-71
2021/08/26 12:36:43;;;;;;;0.00;0.00;;;;;;;;;;5082914;28;20385;-72
2021/08/26 12:39:16;;;;;;;0.00;0.00;;;;;;;;;;5071617;28;20425;-72
2021/08/26 12:41:42;;;;;;;0.03;0.03;;;;;;;;;;5082229;28;20488;-73
2021/08/26 12:44:25;;;;;;;0.10;0.10;;;;;;;;;;5072241;28;20208;-71
2021/08/26 12:46:53;;;;;;;0.10;0.10;;;;;;;;;;5082214;28;20224;-72
2021/08/26 12:49:20;;;;;;;0.00;0.00;;;;;;;;;;5083325;28;20236;-72
2021/08/26 12:51:51;;;;;;;0.00;0.00;;;;;;;;;;5079144;28;20215;-72
2021/08/26 12:54:18;;;;;;;0.10;0.10;;;;;;;;;;5073665;28;20202;-70
2021/08/26 12:56:46;;;;;;;0.00;0.00;;;;;;;;;;5082384;28;20230;-70
2021/08/26 12:59:13;;;;;;;0.00;0.00;;;;;;;;;;5070622;28;20202;-72
2021/08/26 13:01:40;;;;;;;0.00;0.00;;;;;;;;;;5064662;28;20252;-71
2021/08/26 13:04:14;;;;;;;0.08;0.08;;;;;;;;;;5082730;28;20206;-70
2021/08/26 13:06:41;;;;;;;0.00;0.00;;;;;;;;;;5082319;28;20218;-71
2021/08/26 13:09:09;;;;;;;0.10;0.10;;;;;;;;;;5082621;28;20209;-70
2021/08/26 13:11:37;;;;;;;0.10;0.10;;;;;;;;;;5085930;28;20522;-73
2021/08/26 13:14:03;;;;;;;0.00;0.00;;;;;;;;;;5071817;28;20269;-71
2021/08/26 13:16:31;;;;;;;0.00;0.00;;;;;;;;;;5082573;28;20547;-71
2021/08/26 13:18:57;;;;;;;0.10;0.10;;;;;;;;;;5080279;28;20233;-72
2021/08/26 13:21:24;;;;;;;0.10;0.10;;;;;;;;;;5080208;28;20229;-71
2021/08/26 13:23:50;;;;;;;0.00;0.00;;;;;;;;;;5060495;28;20206;-71
2021/08/26 13:26:16;;;;;;;0.00;0.00;;;;;;;;;;5056254;28;20489;-71
2021/08/26 13:28:43;;;;;;;0.03;0.03;;;;;;;;;;5066214;28;20489;-71
2021/08/26 13:31:09;;;;;;;0.10;0.10;;;;;;;;;;5058954;28;20483;-71
2021/08/26 13:33:37;;;;;;;0.00;0.00;;;;;;;;;;5064194;28;20244;-72
2021/08/26 13:36:03;;;;;;;0.00;0.00;;;;;;;;;;5055365;28;20275;-71
2021/08/26 13:38:30;;;;;;;0.00;0.00;;;;;;;;;;5057836;28;20248;-73
2021/08/26 13:40:56;;;;;;;0.00;0.00;;;;;;;;;;5056302;28;20250;-73
2021/08/26 13:43:23;;;;;;;0.10;0.10;;;;;;;;;;5059559;28;20206;-73
2021/08/26 13:45:49;;;;;;;0.00;0.00;;;;;;;;;;5055673;28;20404;-71
2021/08/26 13:48:15;;;;;;;0.10;0.10;;;;;;;;;;5063263;28;20284;-73
2021/08/26 13:50:43;;;;;;;0.00;0.00;;;;;;;;;;5053869;28;20248;-72
2021/08/26 13:53:10;;;;;;;0.00;0.00;;;;;;;;;;5059425;28;20267;-72
2021/08/26 13:55:39;;;;;;;0.00;0.00;;;;;;;;;;5063118;28;20338;-72
2021/08/26 13:58:05;;;;;;;0.10;0.10;;;;;;;;;;5059260;28;20218;-73
2021/08/26 14:00:31;;;;;;;0.00;0.00;;;;;;;;;;5056428;28;20353;-74
2021/08/26 14:02:59;;;;;;;0.00;0.00;;;;;;;;;;5062531;28;20220;-72
2021/08/26 14:05:26;;;;;;;0.00;0.00;;;;;;;;;;5053541;28;20208;-74
2021/08/26 14:07:53;;;;;;;0.08;0.08;;;;;;;;;;5059062;28;20236;-73
2021/08/26 14:10:21;;;;;;;0.10;0.10;;;;;;;;;;5053955;28;20213;-73
2021/08/26 14:12:47;;;;;;;0.00;0.00;;;;;;;;;;5053890;28;20365;-71
2021/08/26 14:15:13;;;;;;;0.00;0.00;;;;;;;;;;5051801;28;20425;-73
2021/08/26 14:17:39;;;;;;;0.00;0.00;;;;;;;;;;5064137;28;20455;-71
2021/08/26 14:20:07;;;;;;;0.10;0.10;;;;;;;;;;5057632;28;20407;-72
2021/08/26 14:22:34;;;;;;;0.00;0.00;;;;;;;;;;5052616;28;20519;-72
2021/08/26 14:25:03;;;;;;;0.00;0.00;;;;;;;;;;5057958;28;20287;-72
2021/08/26 14:27:29;;;;;;;0.05;0.05;;;;;;;;;;5053195;28;20226;-71
2021/08/26 14:29:55;;;;;;;0.10;0.10;;;;;;;;;;5050750;28;20289;-72
2021/08/26 14:32:22;;;;;;;0.10;0.10;;;;;;;;;;5059233;28;20207;-73
2021/08/26 14:34:51;;;;;;;0.00;0.00;;;;;;;;;;5064953;28;20204;-73
2021/08/26 14:37:17;;;;;;;0.10;0.10;;;;;;;;;;5064642;28;20222;-72
2021/08/26 14:39:44;;;;;;;0.00;0.00;;;;;;;;;;5064967;28;20214;-73
2021/08/26 14:42:11;;;;;;;0.00;0.00;;;;;;;;;;5065187;28;20215;-73
2021/08/26 14:44:38;;;;;;;0.00;0.00;;;;;;;;;;5059057;28;20422;-72
2021/08/26 14:47:04;;;;;;;0.00;0.00;;;;;;;;;;5058928;28;20252;-72
2021/08/26 14:49:31;;;;;;;0.10;0.10;;;;;;;;;;5058866;28;20246;-72